Saint Paul, MN (55101)

8:42 PM CST on February 09, 2016 (GMT -0600)
Mounds Park, East Metro | | Change Station
CLOSE
Current Station
Personal Weather Station
Location: Saint Paul, MN
Elevation: 850 ft
Nearby Weather Stations

Elev 850 ft 44.95 °N, 93.06 °W | Updated 11 minutes ago

Clear
Clear
10.3 °F
Feels Like 10 °F
N
2.0
Wind Variable Wind from NW
Gusts 14.0 mph

Today
High -- | Low -- °F
--% Chance of Precip.
Yesterday
High -- | Low -- °F
Precip. -- in
Pressure 30.21 in
Visibility 10.0 miles
Clouds Clear
Windchill 10 °F
Dew Point -8 °F
Humidity 43%
Rainfall Not available.
Snow Depth Not available.
7:22 AM 5:31 PM
Waxing Crescent, 3% visible
METAR KSTP 100153Z 32011KT 10SM CLR M11/M19 A3016 RMK AO2 SLP229 T11111194
Pressure 30.21 in
Visibility 10.0 miles
Clouds Clear
Windchill 10 °F
Dew Point -8 °F
Humidity 43%
Rainfall Not available.
Snow Depth Not available.
7:22 AM 5:31 PM
Waxing Crescent, 3% visible
METAR KSTP 100153Z 32011KT 10SM CLR M11/M19 A3016 RMK AO2 SLP229 T11111194

10-Day Weather Forecast

Almanac

Astronomy

Feb. 09, 2016 Rise Set
Actual Time
Civil Twilight
Nautical Twilight
Astronomical Twilight
Moon
Length of Visible Light
Length of Day
Tomorrow will be .
, % of the Moon is Illuminated

Today's Extremes

State Highs State Lows

Community

WunderPhotos

Upload Photos

1,891,786 photos uploaded!

WunderBlog® & News

Nearby

Air Quality

  Air Quality AQ Index Pollutant
Not available.

Snow Depth

Station Depth Elevation

Earthquake Activity

City Distance Mag. Time & Date
Minimum magnitude displayed is 2.5.

Coastal Water Temperatures

Place Temperature

Stations

Nearby Weather Stations

Station Location Temp. Windchill Dew Point Humidity Wind Precip. Elev Updated Type
                   

Watches & Warnings

There are currently no watches in effect.